Time;durP1;ratioP1;P1;durP2;ratioP2;P2;SDS_P1;SDS_P2;PMS_P1;PMS_P2;Temp;Humidity;BMP_temperature;BMP_pressure;BME280_temperature;BME280_humidity;BME280_pressure;Samples;Min_cycle;Max_cycle;Signal;HPM_P1;HPM_P2
2022/06/18 00:00:48;;;;;;;2.88;2.38;;;;;;;;;;5050579;28;20029;-40
2022/06/18 00:03:14;;;;;;;5.63;2.65;;;;;;;;;;5051977;28;20021;-40
2022/06/18 00:05:41;;;;;;;3.92;3.03;;;;;;;;;;5051817;28;20021;-40
2022/06/18 00:08:10;;;;;;;3.08;2.47;;;;;;;;;;5051927;28;20082;-39
2022/06/18 00:10:35;;;;;;;6.85;2.85;;;;;;;;;;5051724;28;20028;-40
2022/06/18 00:15:56;;;;;;;3.00;2.47;;;;;;;;;;5051634;28;20056;-40
2022/06/18 00:18:21;;;;;;;4.35;2.83;;;;;;;;;;5051405;28;20040;-40
2022/06/18 00:20:47;;;;;;;3.03;2.72;;;;;;;;;;5051606;28;20040;-40
2022/06/18 00:23:14;;;;;;;3.20;2.90;;;;;;;;;;5051677;28;20028;-40
2022/06/18 00:25:40;;;;;;;4.93;2.53;;;;;;;;;;5051527;28;20036;-40
2022/06/18 00:28:26;;;;;;;4.82;3.65;;;;;;;;;;5051706;28;20103;-40
2022/06/18 00:30:52;;;;;;;4.05;2.65;;;;;;;;;;5049859;28;20479;-40
2022/06/18 00:33:18;;;;;;;3.00;2.75;;;;;;;;;;5051287;28;20044;-40
2022/06/18 00:35:44;;;;;;;3.53;3.05;;;;;;;;;;5051312;28;20116;-40
2022/06/18 00:38:13;;;;;;;4.65;2.70;;;;;;;;;;5049848;28;20479;-40
2022/06/18 00:40:39;;;;;;;3.28;2.70;;;;;;;;;;5051336;28;20027;-40
2022/06/18 00:43:11;;;;;;;3.03;2.53;;;;;;;;;;5049954;28;20025;-40
2022/06/18 00:45:36;;;;;;;2.83;2.60;;;;;;;;;;5051241;28;20028;-40
2022/06/18 00:48:13;;;;;;;3.38;2.65;;;;;;;;;;5049979;28;20021;-40
2022/06/18 00:50:38;;;;;;;3.50;3.05;;;;;;;;;;5049931;28;20032;-40
2022/06/18 00:53:08;;;;;;;2.90;2.58;;;;;;;;;;5051218;28;20028;-40
2022/06/18 00:55:51;;;;;;;4.28;2.67;;;;;;;;;;5051341;28;20020;-40
2022/06/18 00:58:35;;;;;;;3.00;2.60;;;;;;;;;;5055005;28;20510;-40
2022/06/18 01:01:01;;;;;;;2.83;2.55;;;;;;;;;;5055339;28;20036;-40
2022/06/18 01:03:27;;;;;;;3.08;2.60;;;;;;;;;;5055356;28;20024;-40
2022/06/18 01:05:56;;;;;;;2.90;2.60;;;;;;;;;;5053836;28;20036;-40
2022/06/18 01:08:23;;;;;;;3.13;2.65;;;;;;;;;;5053794;28;20059;-41
2022/06/18 01:10:50;;;;;;;5.53;2.97;;;;;;;;;;5055182;28;20055;-40
2022/06/18 01:13:20;;;;;;;4.93;2.47;;;;;;;;;;5054836;28;20041;-43
2022/06/18 01:15:46;;;;;;;3.80;2.40;;;;;;;;;;5053617;28;20044;-40
2022/06/18 01:18:12;;;;;;;5.13;2.83;;;;;;;;;;5053511;28;20095;-40
2022/06/18 01:20:47;;;;;;;4.10;2.90;;;;;;;;;;5053571;28;20455;-39
2022/06/18 01:23:28;;;;;;;2.97;2.67;;;;;;;;;;5053493;28;20435;-40
2022/06/18 01:25:54;;;;;;;3.33;2.60;;;;;;;;;;5053519;28;20458;-40
2022/06/18 01:28:20;;;;;;;2.58;2.38;;;;;;;;;;5054932;28;20100;-40
2022/06/18 01:30:47;;;;;;;4.07;2.70;;;;;;;;;;5055010;28;20111;-40
2022/06/18 01:33:15;;;;;;;3.20;2.90;;;;;;;;;;5054790;28;20021;-40
2022/06/18 01:35:45;;;;;;;3.72;3.00;;;;;;;;;;5053323;28;20032;-40
2022/06/18 01:38:17;;;;;;;5.03;3.50;;;;;;;;;;5053180;28;20064;-40
2022/06/18 01:41:49;;;;;;;3.10;2.80;;;;;;;;;;5053175;28;20392;-40
2022/06/18 01:43:53;;;;;;;2.92;2.60;;;;;;;;;;5053061;28;20491;-39
2022/06/18 01:46:19;;;;;;;4.82;2.92;;;;;;;;;;5053091;28;20039;-40
2022/06/18 01:48:46;;;;;;;3.55;2.75;;;;;;;;;;5053096;28;20025;-40
2022/06/18 01:51:12;;;;;;;4.18;3.20;;;;;;;;;;5053028;28;20056;-40
2022/06/18 01:53:39;;;;;;;3.60;2.97;;;;;;;;;;5054671;28;20620;-40
2022/06/18 01:56:17;;;;;;;5.10;3.20;;;;;;;;;;5052939;28;20403;-40
2022/06/18 01:58:48;;;;;;;5.50;3.05;;;;;;;;;;5052886;28;20040;-40
2022/06/18 02:01:24;;;;;;;3.22;2.85;;;;;;;;;;5052835;28;20094;-39
2022/06/18 02:03:51;;;;;;;3.97;2.90;;;;;;;;;;5052748;28;20025;-40
2022/06/18 02:06:17;;;;;;;4.07;2.95;;;;;;;;;;5052714;28;20024;-40
2022/06/18 02:08:42;;;;;;;6.65;3.20;;;;;;;;;;5052693;28;20029;-40
2022/06/18 02:11:10;;;;;;;7.53;3.20;;;;;;;;;;5052515;28;20537;-40
2022/06/18 02:13:40;;;;;;;3.17;2.60;;;;;;;;;;5053780;28;20029;-40
2022/06/18 02:16:07;;;;;;;3.22;2.75;;;;;;;;;;5052554;28;20094;-40
2022/06/18 02:18:33;;;;;;;3.72;2.75;;;;;;;;;;5052516;28;20047;-40
2022/06/18 02:20:59;;;;;;;4.55;2.95;;;;;;;;;;5053878;28;20028;-40
2022/06/18 02:23:25;;;;;;;3.42;3.00;;;;;;;;;;5052290;28;20037;-40
2022/06/18 02:25:51;;;;;;;2.83;2.63;;;;;;;;;;5053824;28;20095;-40
2022/06/18 02:28:35;;;;;;;2.83;2.63;;;;;;;;;;5053609;28;20557;-39
2022/06/18 02:31:01;;;;;;;5.35;3.00;;;;;;;;;;5052241;28;20487;-40
2022/06/18 02:33:31;;;;;;;6.25;2.85;;;;;;;;;;5053402;28;20043;-43
2022/06/18 02:35:59;;;;;;;8.07;3.63;;;;;;;;;;5052288;28;20120;-40
2022/06/18 02:38:24;;;;;;;4.18;2.83;;;;;;;;;;5053665;28;20482;-40
2022/06/18 02:40:50;;;;;;;3.35;3.05;;;;;;;;;;5053688;28;20033;-40
2022/06/18 02:43:16;;;;;;;3.17;2.75;;;;;;;;;;5052046;28;20021;-39
2022/06/18 02:45:43;;;;;;;5.32;2.88;;;;;;;;;;5053299;28;20058;-40
2022/06/18 02:48:09;;;;;;;2.78;2.55;;;;;;;;;;5051963;28;20024;-40
2022/06/18 02:50:36;;;;;;;3.30;3.00;;;;;;;;;;5052085;28;20036;-40
2022/06/18 02:53:02;;;;;;;4.78;2.78;;;;;;;;;;5051787;28;20025;-40
2022/06/18 02:55:34;;;;;;;3.13;2.83;;;;;;;;;;5051859;28;20029;-40
2022/06/18 02:58:03;;;;;;;3.50;2.83;;;;;;;;;;5053016;28;20037;-40
2022/06/18 03:00:28;;;;;;;4.38;2.83;;;;;;;;;;5051653;28;20029;-39
2022/06/18 03:02:54;;;;;;;3.70;3.17;;;;;;;;;;5053044;28;20033;-39
2022/06/18 03:05:23;;;;;;;4.60;3.13;;;;;;;;;;5051529;28;20025;-40
2022/06/18 03:07:48;;;;;;;5.45;3.58;;;;;;;;;;5053269;28;20151;-40
2022/06/18 03:12:57;;;;;;;5.18;3.33;;;;;;;;;;5052822;28;20065;-40
2022/06/18 03:15:24;;;;;;;3.50;3.13;;;;;;;;;;5051256;28;20048;-40
2022/06/18 03:17:51;;;;;;;8.20;3.22;;;;;;;;;;5051389;28;20040;-40
2022/06/18 03:20:18;;;;;;;4.32;3.38;;;;;;;;;;5052239;28;20059;-41
2022/06/18 03:22:44;;;;;;;3.97;3.38;;;;;;;;;;5052619;28;20021;-39
2022/06/18 03:25:09;;;;;;;3.63;2.80;;;;;;;;;;5051204;28;20020;-41
2022/06/18 03:27:35;;;;;;;3.88;3.08;;;;;;;;;;5051176;28;20064;-40
2022/06/18 03:30:04;;;;;;;3.70;3.13;;;;;;;;;;5051287;28;20031;-40
2022/06/18 03:32:30;;;;;;;3.70;3.08;;;;;;;;;;5051086;28;20057;-39
2022/06/18 03:34:56;;;;;;;4.90;3.17;;;;;;;;;;5052314;28;20048;-40
2022/06/18 03:37:22;;;;;;;8.65;3.47;;;;;;;;;;5050957;28;20444;-39
2022/06/18 03:39:47;;;;;;;3.78;3.40;;;;;;;;;;5051019;28;20023;-40
2022/06/18 03:42:13;;;;;;;5.05;3.20;;;;;;;;;;5050887;28;20024;-40
2022/06/18 03:44:39;;;;;;;12.30;3.20;;;;;;;;;;5050877;28;20025;-39
2022/06/18 03:47:05;;;;;;;3.10;2.67;;;;;;;;;;5050937;28;20041;-43
2022/06/18 03:49:35;;;;;;;7.03;3.03;;;;;;;;;;5050927;28;20024;-40
2022/06/18 03:52:03;;;;;;;5.85;3.13;;;;;;;;;;5050832;28;20033;-40
2022/06/18 03:54:29;;;;;;;3.78;3.08;;;;;;;;;;5052003;28;20075;-40
2022/06/18 03:56:56;;;;;;;5.45;3.30;;;;;;;;;;5050510;28;20437;-39
2022/06/18 03:59:21;;;;;;;3.75;2.83;;;;;;;;;;5051887;28;20025;-40
2022/06/18 04:01:48;;;;;;;4.32;3.30;;;;;;;;;;5050649;28;20499;-40
2022/06/18 04:04:15;;;;;;;3.17;2.70;;;;;;;;;;5050413;28;20025;-39
2022/06/18 04:06:44;;;;;;;5.20;3.10;;;;;;;;;;5050587;28;20158;-40
2022/06/18 04:09:35;;;;;;;3.33;3.03;;;;;;;;;;5050390;28;20490;-40
2022/06/18 04:12:01;;;;;;;4.30;3.35;;;;;;;;;;5050391;28;20055;-39
2022/06/18 04:14:28;;;;;;;3.30;3.00;;;;;;;;;;5050122;28;20077;-40
2022/06/18 04:17:16;;;;;;;6.15;3.47;;;;;;;;;;5051331;28;20048;-39
2022/06/18 04:19:42;;;;;;;5.55;2.70;;;;;;;;;;5050379;28;20078;-40
2022/06/18 04:22:09;;;;;;;6.93;3.55;;;;;;;;;;5050294;28;20044;-40
2022/06/18 04:24:43;;;;;;;3.55;2.90;;;;;;;;;;5050167;28;20032;-45
2022/06/18 04:27:09;;;;;;;3.83;2.88;;;;;;;;;;5050210;28;20029;-40
2022/06/18 04:29:35;;;;;;;5.75;3.03;;;;;;;;;;5050125;28;20167;-40
2022/06/18 04:32:02;;;;;;;6.07;2.90;;;;;;;;;;5049328;28;20033;-39
2022/06/18 04:34:28;;;;;;;6.55;3.25;;;;;;;;;;5050013;28;20020;-40
2022/06/18 04:37:25;;;;;;;3.80;3.30;;;;;;;;;;5060882;28;20128;-40
2022/06/18 04:40:31;;;;;;;4.93;3.28;;;;;;;;;;5046392;28;20549;-40
2022/06/18 04:43:26;;;;;;;4.30;3.03;;;;;;;;;;5054817;28;20386;-40
2022/06/18 04:45:54;;;;;;;9.40;3.08;;;;;;;;;;5049934;28;20025;-40
2022/06/18 04:48:21;;;;;;;4.50;3.08;;;;;;;;;;5049903;28;20028;-40
2022/06/18 04:50:47;;;;;;;5.25;3.42;;;;;;;;;;5050233;28;20033;-40
2022/06/18 04:53:13;;;;;;;4.10;2.70;;;;;;;;;;5051104;28;20460;-40
2022/06/18 04:55:42;;;;;;;4.57;3.17;;;;;;;;;;5049922;28;20078;-40
2022/06/18 04:58:08;;;;;;;6.57;3.55;;;;;;;;;;5049612;28;20037;-40
2022/06/18 05:00:37;;;;;;;3.33;2.80;;;;;;;;;;5049864;28;20025;-40
2022/06/18 05:03:15;;;;;;;3.35;2.95;;;;;;;;;;5049724;28;20082;-40
2022/06/18 05:06:10;;;;;;;3.90;2.95;;;;;;;;;;5050858;28;20037;-40
2022/06/18 05:08:54;;;;;;;3.13;2.50;;;;;;;;;;5051128;28;20116;-40
2022/06/18 05:11:26;;;;;;;5.13;2.90;;;;;;;;;;5049694;28;20039;-41
2022/06/18 05:14:17;;;;;;;5.53;3.13;;;;;;;;;;5051357;28;20048;-40
2022/06/18 05:17:21;;;;;;;3.55;3.00;;;;;;;;;;5050316;28;20044;-40
2022/06/18 05:19:48;;;;;;;6.40;2.55;;;;;;;;;;5049724;28;20115;-42
2022/06/18 05:22:15;;;;;;;3.13;2.83;;;;;;;;;;5049829;28;20495;-40
2022/06/18 05:24:42;;;;;;;5.65;2.88;;;;;;;;;;5049596;28;20036;-40
2022/06/18 05:27:19;;;;;;;3.03;2.80;;;;;;;;;;5049566;28;20442;-40
2022/06/18 05:29:45;;;;;;;3.53;2.80;;;;;;;;;;5051299;28;20053;-40
2022/06/18 05:32:10;;;;;;;3.58;3.05;;;;;;;;;;5049607;28;20021;-39
2022/06/18 05:34:37;;;;;;;3.38;3.05;;;;;;;;;;5033075;28;20499;-40
2022/06/18 05:37:04;;;;;;;5.72;3.03;;;;;;;;;;5049416;28;20124;-39
2022/06/18 05:39:30;;;;;;;3.83;2.80;;;;;;;;;;5049455;28;20041;-39
2022/06/18 05:41:56;;;;;;;3.58;2.15;;;;;;;;;;5049427;28;20032;-40
2022/06/18 05:44:22;;;;;;;3.45;2.55;;;;;;;;;;5054385;28;20624;-40
2022/06/18 05:46:48;;;;;;;3.33;2.97;;;;;;;;;;5054255;28;20029;-39
2022/06/18 05:49:14;;;;;;;3.10;2.38;;;;;;;;;;5053048;28;20044;-39
2022/06/18 05:51:39;;;;;;;3.45;2.75;;;;;;;;;;5053060;28;20119;-40
2022/06/18 05:54:06;;;;;;;3.35;2.42;;;;;;;;;;5053025;28;20036;-40
2022/06/18 05:56:44;;;;;;;3.65;3.15;;;;;;;;;;5038155;28;20536;-40
2022/06/18 05:59:45;;;;;;;8.35;3.47;;;;;;;;;;5071782;28;20051;-39
2022/06/18 06:02:11;;;;;;;3.58;2.95;;;;;;;;;;5056472;28;20380;-40
2022/06/18 06:04:39;;;;;;;3.50;2.40;;;;;;;;;;5054104;28;20018;-39
2022/06/18 06:07:06;;;;;;;3.22;2.15;;;;;;;;;;5052756;28;20095;-39
2022/06/18 06:12:18;;;;;;;3.85;2.10;;;;;;;;;;5062539;28;20049;-40
2022/06/18 06:14:44;;;;;;;4.65;2.13;;;;;;;;;;5052469;28;20107;-40
2022/06/18 06:17:13;;;;;;;4.38;2.28;;;;;;;;;;5053805;28;20073;-40
2022/06/18 06:19:40;;;;;;;4.68;2.03;;;;;;;;;;5052448;28;20033;-39
2022/06/18 06:22:06;;;;;;;3.70;2.67;;;;;;;;;;5053918;28;20029;-39
2022/06/18 06:24:32;;;;;;;2.55;2.35;;;;;;;;;;5053690;28;20021;-39
2022/06/18 06:26:58;;;;;;;3.03;2.17;;;;;;;;;;5053797;28;20029;-39
2022/06/18 06:29:23;;;;;;;2.33;2.10;;;;;;;;;;5053388;28;20026;-40
2022/06/18 06:31:49;;;;;;;3.35;2.80;;;;;;;;;;5053529;28;20029;-43
2022/06/18 06:34:16;;;;;;;10.20;3.47;;;;;;;;;;5053726;28;20057;-39
2022/06/18 06:36:41;;;;;;;3.22;1.98;;;;;;;;;;5052537;28;20116;-39
2022/06/18 06:39:07;;;;;;;5.60;2.13;;;;;;;;;;5053554;28;20104;-40
2022/06/18 06:41:33;;;;;;;2.92;1.92;;;;;;;;;;5053336;28;20484;-39
2022/06/18 06:43:58;;;;;;;2.25;2.05;;;;;;;;;;5053614;28;20029;-40
2022/06/18 06:46:24;;;;;;;5.13;1.90;;;;;;;;;;5053624;28;20082;-40
2022/06/18 06:48:50;;;;;;;4.15;2.20;;;;;;;;;;5053290;28;20532;-39
2022/06/18 06:51:18;;;;;;;2.13;1.92;;;;;;;;;;5053284;28;20033;-40
2022/06/18 06:53:44;;;;;;;4.53;1.92;;;;;;;;;;5052595;28;20048;-40
2022/06/18 06:58:55;;;;;;;2.30;2.10;;;;;;;;;;5053289;28;20051;-40
2022/06/18 07:01:21;;;;;;;4.55;2.05;;;;;;;;;;5053035;28;20104;-40
2022/06/18 07:03:46;;;;;;;2.28;2.08;;;;;;;;;;5053373;28;20445;-40
2022/06/18 07:06:13;;;;;;;4.50;2.15;;;;;;;;;;5052893;28;20067;-40
2022/06/18 07:08:39;;;;;;;5.70;1.80;;;;;;;;;;5052900;28;20475;-42
2022/06/18 07:11:05;;;;;;;1.73;1.63;;;;;;;;;;5052831;28;20029;-39
2022/06/18 07:13:31;;;;;;;2.45;1.92;;;;;;;;;;5052907;28;20602;-40
2022/06/18 07:15:58;;;;;;;4.57;2.47;;;;;;;;;;5052840;28;20207;-39
2022/06/18 07:18:24;;;;;;;2.75;2.25;;;;;;;;;;5052866;28;20048;-40
2022/06/18 07:20:50;;;;;;;3.40;1.60;;;;;;;;;;5052732;28;20017;-40
2022/06/18 07:23:16;;;;;;;3.67;1.80;;;;;;;;;;5052450;28;20043;-40
2022/06/18 07:25:42;;;;;;;1.85;1.60;;;;;;;;;;5052724;28;20021;-40
2022/06/18 07:28:08;;;;;;;4.05;1.65;;;;;;;;;;5052840;28;20085;-39
2022/06/18 07:30:34;;;;;;;1.58;1.45;;;;;;;;;;5052434;28;20098;-41
2022/06/18 07:33:00;;;;;;;1.92;1.75;;;;;;;;;;5052475;28;20539;-40
2022/06/18 07:35:27;;;;;;;5.57;2.40;;;;;;;;;;5052381;28;20159;-40
2022/06/18 07:37:54;;;;;;;8.02;2.17;;;;;;;;;;5052284;28;20033;-40
2022/06/18 07:40:19;;;;;;;2.67;2.00;;;;;;;;;;5052253;28;20490;-39
2022/06/18 07:42:47;;;;;;;5.13;2.40;;;;;;;;;;5051043;28;20065;-40
2022/06/18 07:45:16;;;;;;;1.92;1.80;;;;;;;;;;5052261;28;20025;-40
2022/06/18 07:47:42;;;;;;;1.90;1.60;;;;;;;;;;5052447;28;20083;-39
2022/06/18 07:50:08;;;;;;;2.38;1.98;;;;;;;;;;5052202;28;20480;-40
2022/06/18 07:52:34;;;;;;;2.67;1.73;;;;;;;;;;5052037;28;20116;-40
2022/06/18 07:55:00;;;;;;;3.47;2.10;;;;;;;;;;5052230;28;20132;-40
2022/06/18 07:57:25;;;;;;;1.92;1.80;;;;;;;;;;5051901;28;20483;-39
2022/06/18 07:59:51;;;;;;;13.13;2.35;;;;;;;;;;5052279;28;20020;-40
2022/06/18 08:02:18;;;;;;;10.38;2.53;;;;;;;;;;5051866;28;20475;-41
2022/06/18 08:04:43;;;;;;;3.25;1.80;;;;;;;;;;5052146;28;20021;-40
2022/06/18 08:07:09;;;;;;;2.08;1.70;;;;;;;;;;5050746;28;20497;-40
2022/06/18 08:09:34;;;;;;;2.08;1.88;;;;;;;;;;5052027;28;20017;-40
2022/06/18 08:12:01;;;;;;;3.72;2.78;;;;;;;;;;5051643;28;20021;-40
2022/06/18 08:14:26;;;;;;;2.15;1.80;;;;;;;;;;5051379;28;20553;-40
2022/06/18 08:16:52;;;;;;;1.73;1.63;;;;;;;;;;5051963;28;20025;-40
2022/06/18 08:19:18;;;;;;;4.90;2.75;;;;;;;;;;5051472;28;20451;-40
2022/06/18 08:21:43;;;;;;;2.72;2.00;;;;;;;;;;5051627;28;20021;-40
2022/06/18 08:24:14;;;;;;;1.45;1.35;;;;;;;;;;5051547;28;20108;-40
2022/06/18 08:26:41;;;;;;;3.33;1.70;;;;;;;;;;5051875;28;20434;-40
2022/06/18 08:29:07;;;;;;;2.75;2.00;;;;;;;;;;5051903;28;20024;-39
2022/06/18 08:31:33;;;;;;;4.45;1.83;;;;;;;;;;5051660;28;20067;-40
2022/06/18 08:33:58;;;;;;;1.90;1.55;;;;;;;;;;5051306;28;20016;-44
2022/06/18 08:36:24;;;;;;;4.00;2.28;;;;;;;;;;5051340;28;20037;-40
2022/06/18 08:38:50;;;;;;;5.68;2.05;;;;;;;;;;5051294;28;20060;-40
2022/06/18 08:41:18;;;;;;;1.42;1.33;;;;;;;;;;5051295;28;20075;-40
2022/06/18 08:43:44;;;;;;;1.65;1.55;;;;;;;;;;5050008;28;20021;-40
2022/06/18 08:46:29;;;;;;;2.25;1.58;;;;;;;;;;5051308;28;20032;-39
2022/06/18 08:48:54;;;;;;;2.13;1.70;;;;;;;;;;5051153;28;20055;-40
2022/06/18 08:51:19;;;;;;;2.97;2.58;;;;;;;;;;5051196;28;20422;-40
2022/06/18 08:53:48;;;;;;;2.30;1.98;;;;;;;;;;5051455;28;20036;-39
2022/06/18 08:56:21;;;;;;;1.65;1.38;;;;;;;;;;5049902;28;20075;-40
2022/06/18 08:58:52;;;;;;;1.38;1.27;;;;;;;;;;5051098;28;20119;-40
2022/06/18 09:01:38;;;;;;;2.17;1.98;;;;;;;;;;5051301;28;20028;-39
2022/06/18 09:04:04;;;;;;;2.83;1.80;;;;;;;;;;5050851;28;20487;-40
2022/06/18 09:06:38;;;;;;;2.00;1.80;;;;;;;;;;5051253;28;20024;-40
2022/06/18 09:09:29;;;;;;;6.43;2.45;;;;;;;;;;5050981;28;20032;-40
2022/06/18 09:12:07;;;;;;;3.75;1.95;;;;;;;;;;5051143;28;20033;-40
2022/06/18 09:14:33;;;;;;;2.10;1.90;;;;;;;;;;5050644;28;20057;-40
2022/06/18 09:17:14;;;;;;;2.35;1.75;;;;;;;;;;5051000;28;20083;-40
2022/06/18 09:19:42;;;;;;;3.83;2.22;;;;;;;;;;5055018;28;20037;-40
2022/06/18 09:22:10;;;;;;;2.28;2.08;;;;;;;;;;5055100;28;20086;-40
2022/06/18 09:24:43;;;;;;;2.05;1.83;;;;;;;;;;5054754;28;20104;-40
2022/06/18 09:27:16;;;;;;;2.75;1.70;;;;;;;;;;5054901;28;20094;-39
2022/06/18 09:29:42;;;;;;;2.42;2.22;;;;;;;;;;5055095;28;20374;-40
2022/06/18 09:32:16;;;;;;;2.10;1.90;;;;;;;;;;5054753;28;20025;-40
2022/06/18 09:34:55;;;;;;;3.00;2.63;;;;;;;;;;5054715;28;20017;-39
2022/06/18 09:37:31;;;;;;;2.28;2.03;;;;;;;;;;5054816;28;20537;-40
2022/06/18 09:39:59;;;;;;;1.77;1.67;;;;;;;;;;5054882;28;20029;-40
2022/06/18 09:42:28;;;;;;;1.75;1.65;;;;;;;;;;5054763;28;20032;-39
2022/06/18 09:45:01;;;;;;;2.35;2.08;;;;;;;;;;5053412;28;20033;-39
2022/06/18 09:47:32;;;;;;;2.20;2.00;;;;;;;;;;5054692;28;20033;-40
2022/06/18 09:49:59;;;;;;;2.40;2.08;;;;;;;;;;5054334;28;20048;-40
2022/06/18 09:52:35;;;;;;;1.63;1.52;;;;;;;;;;5054552;28;20116;-40
2022/06/18 09:55:07;;;;;;;5.70;1.90;;;;;;;;;;5054296;28;20025;-40
2022/06/18 09:57:35;;;;;;;2.85;2.22;;;;;;;;;;5054272;28;20483;-41
2022/06/18 10:00:14;;;;;;;3.05;1.65;;;;;;;;;;5054205;28;20062;-39
2022/06/18 10:03:00;;;;;;;4.43;2.35;;;;;;;;;;5054203;28;20029;-39
2022/06/18 10:08:17;;;;;;;3.53;1.90;;;;;;;;;;5053984;28;20033;-39
2022/06/18 10:10:46;;;;;;;3.63;2.28;;;;;;;;;;5054175;28;20024;-39
2022/06/18 10:13:14;;;;;;;2.33;2.13;;;;;;;;;;5053935;28;20032;-40
2022/06/18 10:15:40;;;;;;;2.03;1.83;;;;;;;;;;5053875;28;20049;-39
2022/06/18 10:18:16;;;;;;;2.55;2.20;;;;;;;;;;5053876;28;20041;-39
2022/06/18 10:20:44;;;;;;;3.45;1.90;;;;;;;;;;5053838;28;20086;-39
2022/06/18 10:23:45;;;;;;;2.83;2.10;;;;;;;;;;5053925;28;20100;-39
2022/06/18 10:26:17;;;;;;;2.13;1.92;;;;;;;;;;5051322;28;20079;-39
2022/06/18 10:29:12;;;;;;;3.38;1.98;;;;;;;;;;5047798;28;20544;-39
2022/06/18 10:31:56;;;;;;;2.92;1.98;;;;;;;;;;5051203;28;20106;-40
2022/06/18 10:34:36;;;;;;;2.30;2.10;;;;;;;;;;5053776;28;20111;-39
2022/06/18 10:37:20;;;;;;;4.53;2.40;;;;;;;;;;5053416;28;20033;-39
2022/06/18 10:39:48;;;;;;;2.22;2.03;;;;;;;;;;5053732;28;20039;-40
2022/06/18 10:42:25;;;;;;;2.35;1.95;;;;;;;;;;5053505;28;20028;-39
2022/06/18 10:45:03;;;;;;;3.13;2.42;;;;;;;;;;5053377;28;20029;-40
2022/06/18 10:47:36;;;;;;;1.92;1.83;;;;;;;;;;5053389;28;20360;-39
2022/06/18 10:50:04;;;;;;;3.28;2.30;;;;;;;;;;5053458;28;20029;-39
2022/06/18 10:52:30;;;;;;;2.38;2.17;;;;;;;;;;5053125;28;20460;-39
2022/06/18 10:55:05;;;;;;;3.55;2.05;;;;;;;;;;5053166;28;20037;-41
2022/06/18 10:57:31;;;;;;;2.35;2.13;;;;;;;;;;5053095;28;20036;-39
2022/06/18 11:00:07;;;;;;;3.90;2.25;;;;;;;;;;5053084;28;20375;-39
2022/06/18 11:02:34;;;;;;;2.17;2.00;;;;;;;;;;5051782;28;20083;-39
2022/06/18 11:05:14;;;;;;;2.72;1.70;;;;;;;;;;5053039;28;20075;-39
2022/06/18 11:07:45;;;;;;;4.82;2.60;;;;;;;;;;5053166;28;20028;-39
2022/06/18 11:10:24;;;;;;;2.30;2.10;;;;;;;;;;5053224;28;20033;-39
2022/06/18 11:12:54;;;;;;;5.05;2.00;;;;;;;;;;5052945;28;20033;-39
2022/06/18 11:15:25;;;;;;;2.40;1.98;;;;;;;;;;5052638;28;20052;-39
2022/06/18 11:17:51;;;;;;;2.50;2.30;;;;;;;;;;5052678;28;20140;-41
2022/06/18 11:20:19;;;;;;;2.60;2.40;;;;;;;;;;5052617;28;20088;-41
2022/06/18 11:22:50;;;;;;;2.35;2.15;;;;;;;;;;5052713;28;20656;-40
2022/06/18 11:25:24;;;;;;;2.63;2.17;;;;;;;;;;5052640;28;20147;-40
2022/06/18 11:27:50;;;;;;;2.15;1.95;;;;;;;;;;5052655;28;20021;-40
2022/06/18 11:30:25;;;;;;;3.47;2.13;;;;;;;;;;5052519;28;20043;-40
2022/06/18 11:32:50;;;;;;;3.70;2.60;;;;;;;;;;5052698;28;20032;-40
2022/06/18 11:35:19;;;;;;;3.15;2.05;;;;;;;;;;5052707;28;20484;-40
2022/06/18 11:37:54;;;;;;;3.35;2.38;;;;;;;;;;5052439;28;20087;-40
2022/06/18 11:40:20;;;;;;;2.75;2.10;;;;;;;;;;5050633;28;20398;-40
2022/06/18 11:42:50;;;;;;;4.68;2.17;;;;;;;;;;5052270;28;20025;-40
2022/06/18 11:45:35;;;;;;;2.40;2.20;;;;;;;;;;5052586;28;20453;-40
2022/06/18 11:48:00;;;;;;;3.42;2.70;;;;;;;;;;5052208;28;20029;-40
2022/06/18 11:50:31;;;;;;;3.17;1.98;;;;;;;;;;5052196;28;20109;-40
2022/06/18 11:53:12;;;;;;;2.47;2.22;;;;;;;;;;5052013;28;20483;-41
2022/06/18 11:55:41;;;;;;;4.63;2.90;;;;;;;;;;5050814;28;20065;-40
2022/06/18 11:58:27;;;;;;;3.80;2.50;;;;;;;;;;5051959;28;20106;-40
2022/06/18 12:01:03;;;;;;;2.78;2.53;;;;;;;;;;5051809;28;20028;-40
2022/06/18 12:03:35;;;;;;;4.13;2.65;;;;;;;;;;5051865;28;20033;-40
2022/06/18 12:06:01;;;;;;;3.13;2.25;;;;;;;;;;5051862;28;20553;-40
2022/06/18 12:08:29;;;;;;;2.92;2.50;;;;;;;;;;5051729;28;20037;-40
2022/06/18 12:10:55;;;;;;;4.25;2.90;;;;;;;;;;5052066;28;20025;-40
2022/06/18 12:13:32;;;;;;;3.00;2.42;;;;;;;;;;5051806;28;20471;-40
2022/06/18 12:16:13;;;;;;;2.17;1.98;;;;;;;;;;5051712;28;20037;-40
2022/06/18 12:18:54;;;;;;;2.25;2.00;;;;;;;;;;5051495;28;20555;-41
2022/06/18 12:21:39;;;;;;;2.45;2.20;;;;;;;;;;5051461;28;20140;-40
2022/06/18 12:24:12;;;;;;;7.80;2.80;;;;;;;;;;5051613;28;20120;-40
2022/06/18 12:26:43;;;;;;;2.58;2.38;;;;;;;;;;5051456;28;20036;-40
2022/06/18 12:29:18;;;;;;;3.88;2.20;;;;;;;;;;5051566;28;20029;-39
2022/06/18 12:31:46;;;;;;;2.85;2.65;;;;;;;;;;5051602;28;20076;-40
2022/06/18 12:34:33;;;;;;;2.15;2.05;;;;;;;;;;5051556;28;20096;-39
2022/06/18 12:37:30;;;;;;;3.03;2.70;;;;;;;;;;5051680;28;20040;-39
2022/06/18 12:40:10;;;;;;;2.60;2.15;;;;;;;;;;5051331;28;20037;-40
2022/06/18 12:42:55;;;;;;;2.03;1.92;;;;;;;;;;5051143;28;20033;-40
2022/06/18 12:45:21;;;;;;;2.60;2.40;;;;;;;;;;5051562;28;20064;-40
2022/06/18 12:48:06;;;;;;;4.82;2.75;;;;;;;;;;5051259;28;20028;-40
2022/06/18 12:50:50;;;;;;;3.35;2.72;;;;;;;;;;5051112;28;20036;-39
2022/06/18 12:53:34;;;;;;;4.30;2.85;;;;;;;;;;5050407;28;20029;-40
2022/06/18 12:56:25;;;;;;;5.25;2.50;;;;;;;;;;5051226;28;20021;-40
2022/06/18 12:58:57;;;;;;;4.43;3.03;;;;;;;;;;5051039;28;20539;-40
2022/06/18 13:01:42;;;;;;;4.30;3.03;;;;;;;;;;5050968;28;20041;-40
2022/06/18 13:04:13;;;;;;;2.80;2.60;;;;;;;;;;5051002;28;20029;-40
2022/06/18 13:06:42;;;;;;;3.67;3.33;;;;;;;;;;5051054;28;20029;-40
2022/06/18 13:09:08;;;;;;;3.75;3.15;;;;;;;;;;5051049;28;20053;-40
2022/06/18 13:11:52;;;;;;;3.63;2.55;;;;;;;;;;5051018;28;20102;-40
2022/06/18 13:14:37;;;;;;;3.22;2.92;;;;;;;;;;5050918;28;20126;-40
2022/06/18 13:17:05;;;;;;;3.70;2.67;;;;;;;;;;5050003;28;20036;-40
2022/06/18 13:19:39;;;;;;;2.80;2.60;;;;;;;;;;5049585;28;20024;-40
2022/06/18 13:22:05;;;;;;;3.58;2.80;;;;;;;;;;5050999;28;20039;-40
2022/06/18 13:30:11;;;;;;;3.83;3.15;;;;;;;;;;5050957;28;20036;-40
2022/06/18 13:32:49;;;;;;;4.03;2.63;;;;;;;;;;5050642;28;20550;-40
2022/06/18 13:35:27;;;;;;;3.47;2.75;;;;;;;;;;5050948;28;20037;-40
2022/06/18 13:37:58;;;;;;;4.07;2.85;;;;;;;;;;5051342;28;20379;-40
2022/06/18 13:40:53;;;;;;;3.22;2.80;;;;;;;;;;5050648;28;20028;-40
2022/06/18 13:43:33;;;;;;;3.60;3.28;;;;;;;;;;5050308;28;20040;-41
2022/06/18 13:46:03;;;;;;;3.55;2.70;;;;;;;;;;5051033;28;20043;-40
2022/06/18 13:48:45;;;;;;;4.70;4.18;;;;;;;;;;5050916;28;20041;-40
2022/06/18 13:51:10;;;;;;;5.78;3.17;;;;;;;;;;5050768;28;20749;-40
2022/06/18 13:53:37;;;;;;;4.18;2.50;;;;;;;;;;5050540;28;20029;-41
2022/06/18 13:56:22;;;;;;;4.55;2.67;;;;;;;;;;5050587;28;20397;-40
2022/06/18 13:58:49;;;;;;;4.07;2.25;;;;;;;;;;5050518;28;20036;-40
2022/06/18 14:01:16;;;;;;;5.75;2.95;;;;;;;;;;5050837;28;20017;-40
2022/06/18 14:03:43;;;;;;;3.55;2.65;;;;;;;;;;5051688;28;20033;-40
2022/06/18 14:06:10;;;;;;;4.13;2.97;;;;;;;;;;5054435;28;20025;-40
2022/06/18 14:08:46;;;;;;;4.45;3.20;;;;;;;;;;5054143;28;20059;-40
2022/06/18 14:11:12;;;;;;;2.75;2.55;;;;;;;;;;5052850;28;20029;-40
2022/06/18 14:13:48;;;;;;;3.63;2.78;;;;;;;;;;5054020;28;20402;-40
2022/06/18 14:16:26;;;;;;;3.85;3.00;;;;;;;;;;5053943;28;20055;-40
2022/06/18 14:18:51;;;;;;;4.47;2.88;;;;;;;;;;5053926;28;20033;-40
2022/06/18 14:21:24;;;;;;;5.95;3.63;;;;;;;;;;5054159;28;20800;-40
2022/06/18 14:23:49;;;;;;;;;;;;;;;;;;5054103;28;20036;-40
2022/06/18 14:26:18;;;;;;;5.90;3.60;;;;;;;;;;5053793;28;19909;-39
2022/06/18 14:28:45;;;;;;;4.97;3.90;;;;;;;;;;5053877;28;20066;-40
2022/06/18 14:31:29;;;;;;;6.80;3.55;;;;;;;;;;5053739;28;20498;-40
2022/06/18 14:34:01;;;;;;;4.20;3.25;;;;;;;;;;5053580;28;20029;-40
2022/06/18 14:36:30;;;;;;;6.30;3.10;;;;;;;;;;5053509;28;20039;-40
2022/06/18 14:38:57;;;;;;;4.13;3.72;;;;;;;;;;5053552;28;20064;-40
2022/06/18 14:41:34;;;;;;;6.15;3.88;;;;;;;;;;5053579;28;20028;-40
2022/06/18 14:44:33;;;;;;;4.20;3.80;;;;;;;;;;5053750;28;20037;-40
2022/06/18 14:47:33;;;;;;;6.22;3.67;;;;;;;;;;5052043;28;20036;-40
2022/06/18 14:50:12;;;;;;;9.60;3.80;;;;;;;;;;5050698;28;20098;-40
2022/06/18 14:53:16;;;;;;;5.68;3.72;;;;;;;;;;5052875;28;20481;-40
2022/06/18 14:55:47;;;;;;;4.57;3.85;;;;;;;;;;5050823;28;20040;-40
2022/06/18 14:58:19;;;;;;;12.85;3.05;;;;;;;;;;5050611;28;20051;-41
2022/06/18 15:00:58;;;;;;;4.25;3.85;;;;;;;;;;5052066;28;20051;-40
2022/06/18 15:03:24;;;;;;;6.68;3.55;;;;;;;;;;5052996;28;20033;-40
2022/06/18 15:05:56;;;;;;;5.20;3.47;;;;;;;;;;5053068;28;20024;-41
2022/06/18 15:08:23;;;;;;;3.50;3.20;;;;;;;;;;5053203;28;20049;-40
2022/06/18 15:10:50;;;;;;;6.13;3.28;;;;;;;;;;5053001;28;20059;-40
2022/06/18 15:13:15;;;;;;;4.22;3.63;;;;;;;;;;5052754;28;20047;-40
2022/06/18 15:21:08;;;;;;;5.07;3.83;;;;;;;;;;5053127;28;20036;-40
2022/06/18 15:26:11;;;;;;;5.13;4.22;;;;;;;;;;5052634;28;20032;-40
2022/06/18 15:28:41;;;;;;;6.95;3.85;;;;;;;;;;5052447;28;20047;-41
2022/06/18 15:31:15;;;;;;;8.38;4.07;;;;;;;;;;5052615;28;20419;-40
2022/06/18 15:33:49;;;;;;;4.35;3.95;;;;;;;;;;5052527;28;20032;-40